Time,TemperatureF,DewpointF,PressureIn,WindDirection,WindDirectionDegrees,WindSpeedMPH,WindSpeedGustMPH,Humidity,HourlyPrecipIn,Conditions,Clouds,dailyrainin,SoftwareType,DateUTC
2013-06-04 00:00:00,68.4,64.4,29.98,SSW,203,0.0,0.0,87,0.00,,,0.00,WUHU216HW,2013-06-04 04:00:00,
2013-06-04 00:01:00,68.4,64.4,29.98,SSW,203,0.0,0.0,87,0.00,,,0.00,WUHU216HW,2013-06-04 04:01:00,
2013-06-04 00:06:00,68.4,64.4,29.98,SSW,203,0.0,0.0,87,0.00,,,0.00,WUHU216HW,2013-06-04 04:06:00,
2013-06-04 00:30:00,68.0,64.0,29.98,SSW,203,0.0,0.0,87,0.00,,,0.00,WUHU216HW,2013-06-04 04:30:00,
2013-06-04 00:35:00,68.0,64.0,29.98,SSW,203,0.0,0.0,87,0.00,,,0.00,WUHU216HW,2013-06-04 04:35:00,
2013-06-04 01:00:00,67.7,64.0,29.99,SSW,203,0.0,0.0,88,0.00,,,0.00,WUHU216HW,2013-06-04 05:00:00,
2013-06-04 01:05:00,67.7,64.0,29.99,SSW,203,0.0,0.0,88,0.00,,,0.00,WUHU216HW,2013-06-04 05:05:00,
2013-06-04 01:30:00,67.1,63.5,29.99,North,0,0.0,0.0,88,0.00,,,0.00,WUHU216HW,2013-06-04 05:30:00,
2013-06-04 01:35:00,67.1,63.5,29.99,North,0,0.0,0.0,88,0.00,,,0.00,WUHU216HW,2013-06-04 05:35:00,
2013-06-04 02:00:00,66.4,63.4,30.00,North,0,0.0,0.0,90,0.00,,,0.00,WUHU216HW,2013-06-04 06:00:00,
2013-06-04 02:05:00,66.4,63.4,30.00,North,0,0.0,0.0,90,0.00,,,0.00,WUHU216HW,2013-06-04 06:05:00,
2013-06-04 02:30:00,66.2,63.2,29.99,North,0,0.2,0.2,90,0.00,,,0.00,WUHU216HW,2013-06-04 06:30:00,
2013-06-04 02:35:00,66.2,63.2,29.99,North,0,0.2,0.2,90,0.00,,,0.00,WUHU216HW,2013-06-04 06:35:00,
2013-06-04 03:00:00,66.1,63.0,29.98,North,0,0.0,0.0,90,0.00,,,0.00,WUHU216HW,2013-06-04 07:00:00,
2013-06-04 03:05:00,66.1,63.0,29.98,North,0,0.0,0.0,90,0.00,,,0.00,WUHU216HW,2013-06-04 07:05:00,
2013-06-04 03:30:00,65.7,62.7,29.98,NE,45,0.0,0.0,90,0.00,,,0.00,WUHU216HW,2013-06-04 07:30:00,
2013-06-04 03:35:00,65.7,62.7,29.98,NE,45,0.0,0.0,90,0.00,,,0.00,WUHU216HW,2013-06-04 07:35:00,
2013-06-04 04:00:00,65.7,63.0,29.98,ENE,68,0.0,0.0,91,0.00,,,0.00,WUHU216HW,2013-06-04 08:00:00,
2013-06-04 04:05:00,65.7,63.0,29.98,ENE,68,0.0,0.0,91,0.00,,,0.00,WUHU216HW,2013-06-04 08:05:00,
2013-06-04 04:30:00,65.5,62.6,29.98,NNE,23,0.0,0.0,90,0.00,,,0.00,WUHU216HW,2013-06-04 08:30:00,
2013-06-04 04:35:00,65.5,62.6,29.98,NNE,23,0.0,0.0,90,0.00,,,0.00,WUHU216HW,2013-06-04 08:35:00,
2013-06-04 05:00:00,65.5,62.6,29.98,NNE,23,0.0,0.0,90,0.00,,,0.00,WUHU216HW,2013-06-04 09:00:00,
2013-06-04 05:05:00,65.5,62.6,29.98,NNE,23,0.0,0.0,90,0.00,,,0.00,WUHU216HW,2013-06-04 09:05:00,
2013-06-04 05:30:00,65.5,62.6,30.00,East,90,0.0,0.0,90,0.00,,,0.00,WUHU216HW,2013-06-04 09:30:00,
2013-06-04 05:35:00,65.5,62.6,30.00,East,90,0.0,0.0,90,0.00,,,0.00,WUHU216HW,2013-06-04 09:35:00,
2013-06-04 06:00:00,65.2,62.2,30.00,NNE,23,0.0,0.0,90,0.00,,,0.00,WUHU216HW,2013-06-04 10:00:00,
2013-06-04 06:05:00,65.2,62.2,30.00,NNE,23,0.0,0.0,90,0.00,,,0.00,WUHU216HW,2013-06-04 10:05:00,
2013-06-04 06:30:00,65.0,62.4,30.02,North,0,0.4,0.4,91,0.00,,,0.00,WUHU216HW,2013-06-04 10:30:00,
2013-06-04 06:35:00,65.0,62.4,30.02,North,0,0.4,0.4,91,0.00,,,0.00,WUHU216HW,2013-06-04 10:35:00,
2013-06-04 07:00:00,65.2,62.5,30.03,NE,45,0.4,0.4,91,0.00,,,0.00,WUHU216HW,2013-06-04 11:00:00,
2013-06-04 07:05:00,65.2,62.5,30.03,NE,45,0.4,0.4,91,0.00,,,0.00,WUHU216HW,2013-06-04 11:05:00,
2013-06-04 07:30:00,65.3,62.6,30.03,NNE,23,0.2,0.2,91,0.00,,,0.00,WUHU216HW,2013-06-04 11:30:00,
2013-06-04 07:35:00,65.3,62.6,30.03,NNE,23,0.2,0.2,91,0.00,,,0.00,WUHU216HW,2013-06-04 11:35:00,
2013-06-04 08:00:00,65.7,63.0,30.05,NE,45,0.9,0.9,91,0.00,,,0.00,WUHU216HW,2013-06-04 12:00:00,
2013-06-04 08:05:00,65.7,63.0,30.05,NE,45,0.9,0.9,91,0.00,,,0.00,WUHU216HW,2013-06-04 12:05:00,
2013-06-04 08:30:00,65.9,63.2,30.06,NE,45,0.2,0.2,91,0.00,,,0.00,WUHU216HW,2013-06-04 12:30:00,
2013-06-04 08:35:00,65.9,63.2,30.06,NE,45,0.2,0.2,91,0.00,,,0.00,WUHU216HW,2013-06-04 12:35:00,
2013-06-04 09:00:00,65.9,62.8,30.07,ENE,68,1.1,1.1,90,0.00,,,0.00,WUHU216HW,2013-06-04 13:00:00,
2013-06-04 09:05:00,65.9,62.8,30.07,ENE,68,1.1,1.1,90,0.00,,,0.00,WUHU216HW,2013-06-04 13:05:00,
2013-06-04 09:30:00,66.6,63.2,30.08,NNE,23,0.0,0.0,89,0.00,,,0.00,WUHU216HW,2013-06-04 13:30:00,
2013-06-04 09:35:00,66.6,63.2,30.08,NNE,23,0.0,0.0,89,0.00,,,0.00,WUHU216HW,2013-06-04 13:35:00,
2013-06-04 10:00:00,67.5,63.8,30.09,SSW,203,0.4,0.4,88,0.00,,,0.00,WUHU216HW,2013-06-04 14:00:00,
2013-06-04 10:05:00,67.5,63.8,30.09,SSW,203,0.4,0.4,88,0.00,,,0.00,WUHU216HW,2013-06-04 14:05:00,
2013-06-04 10:30:00,67.7,63.6,30.10,ENE,68,0.0,0.0,87,0.00,,,0.00,WUHU216HW,2013-06-04 14:30:00,
2013-06-04 10:35:00,67.7,63.6,30.10,ENE,68,0.0,0.0,87,0.00,,,0.00,WUHU216HW,2013-06-04 14:35:00,
2013-06-04 11:00:00,68.0,64.0,30.11,NNW,338,0.0,0.0,87,0.00,,,0.00,WUHU216HW,2013-06-04 15:00:00,
2013-06-04 11:05:00,68.0,64.0,30.11,NNW,338,0.0,0.0,87,0.00,,,0.00,WUHU216HW,2013-06-04 15:05:00,
2013-06-04 11:30:00,67.5,63.2,30.11,NE,45,0.2,0.2,86,0.00,,,0.00,WUHU216HW,2013-06-04 15:30:00,
2013-06-04 11:35:00,67.5,63.2,30.11,NE,45,0.2,0.2,86,0.00,,,0.00,WUHU216HW,2013-06-04 15:35:00,
2013-06-04 12:00:00,67.5,63.2,30.12,NNW,338,0.4,0.4,86,0.00,,,0.00,WUHU216HW,2013-06-04 16:00:00,
2013-06-04 12:05:00,67.5,63.2,30.12,NNW,338,0.4,0.4,86,0.00,,,0.00,WUHU216HW,2013-06-04 16:05:00,
2013-06-04 12:30:00,68.6,63.9,30.12,North,0,0.4,0.4,85,0.00,,,0.00,WUHU216HW,2013-06-04 16:30:00,
2013-06-04 12:35:00,68.6,63.9,30.12,North,0,0.4,0.4,85,0.00,,,0.00,WUHU216HW,2013-06-04 16:35:00,
2013-06-04 13:00:00,69.1,63.7,30.11,NNE,23,0.4,0.4,83,0.00,,,0.00,WUHU216HW,2013-06-04 17:00:00,
2013-06-04 13:05:00,69.1,63.7,30.11,NNE,23,0.4,0.4,83,0.00,,,0.00,WUHU216HW,2013-06-04 17:05:00,
2013-06-04 13:30:00,69.8,64.1,30.11,North,0,0.7,0.7,82,0.00,,,0.00,WUHU216HW,2013-06-04 17:30:00,
2013-06-04 13:35:00,69.8,64.1,30.11,North,0,0.7,0.7,82,0.00,,,0.00,WUHU216HW,2013-06-04 17:35:00,
2013-06-04 14:00:00,70.7,64.6,30.10,ENE,68,0.2,0.2,81,0.00,,,0.00,WUHU216HW,2013-06-04 18:00:00,
2013-06-04 14:05:00,70.7,64.6,30.10,ENE,68,0.2,0.2,81,0.00,,,0.00,WUHU216HW,2013-06-04 18:05:00,
2013-06-04 14:30:00,70.9,64.4,30.10,ENE,68,0.2,0.2,80,0.00,,,0.00,WUHU216HW,2013-06-04 18:30:00,
2013-06-04 14:35:00,70.9,64.4,30.10,ENE,68,0.2,0.2,80,0.00,,,0.00,WUHU216HW,2013-06-04 18:35:00,
2013-06-04 15:00:00,71.6,65.2,30.10,NNE,23,0.0,0.0,80,0.00,,,0.00,WUHU216HW,2013-06-04 19:00:00,
2013-06-04 15:05:00,71.6,65.2,30.10,NNE,23,0.0,0.0,80,0.00,,,0.00,WUHU216HW,2013-06-04 19:05:00,
2013-06-04 15:30:00,72.4,65.5,30.09,SE,135,0.2,0.2,79,0.00,,,0.00,WUHU216HW,2013-06-04 19:30:00,
2013-06-04 15:35:00,72.4,65.5,30.09,SE,135,0.2,0.2,79,0.00,,,0.00,WUHU216HW,2013-06-04 19:35:00,
2013-06-04 16:00:00,73.1,65.9,30.09,NNE,23,0.0,0.0,78,0.00,,,0.00,WUHU216HW,2013-06-04 20:00:00,
2013-06-04 16:05:00,73.1,65.9,30.09,NNE,23,0.0,0.0,78,0.00,,,0.00,WUHU216HW,2013-06-04 20:05:00,
2013-06-04 16:30:00,74.0,66.0,30.09,SSE,158,0.0,0.0,76,0.00,,,0.00,WUHU216HW,2013-06-04 20:30:00,
2013-06-04 16:35:00,74.0,66.0,30.09,SSE,158,0.0,0.0,76,0.00,,,0.00,WUHU216HW,2013-06-04 20:35:00,
2013-06-04 17:00:00,74.5,66.1,30.08,South,180,0.0,0.0,75,0.00,,,0.00,WUHU216HW,2013-06-04 21:00:00,
2013-06-04 17:05:00,74.5,66.1,30.08,South,180,0.0,0.0,75,0.00,,,0.00,WUHU216HW,2013-06-04 21:05:00,
2013-06-04 17:30:00,74.9,66.1,30.08,West,270,0.0,0.0,74,0.00,,,0.00,WUHU216HW,2013-06-04 21:30:00,
2013-06-04 17:35:00,74.9,66.1,30.08,West,270,0.0,0.0,74,0.00,,,0.00,WUHU216HW,2013-06-04 21:35:00,
2013-06-04 18:00:00,74.9,66.9,30.08,ENE,68,0.0,0.0,76,0.00,,,0.00,WUHU216HW,2013-06-04 22:00:00,
2013-06-04 18:05:00,74.9,66.9,30.08,ENE,68,0.0,0.0,76,0.00,,,0.00,WUHU216HW,2013-06-04 22:05:00,
2013-06-04 18:30:00,74.7,66.2,30.08,SSW,203,0.0,0.0,75,0.00,,,0.00,WUHU216HW,2013-06-04 22:30:00,
2013-06-04 18:35:00,74.7,66.2,30.08,SSW,203,0.0,0.0,75,0.00,,,0.00,WUHU216HW,2013-06-04 22:35:00,
2013-06-04 19:00:00,74.2,65.3,30.08,West,270,0.0,0.0,74,0.00,,,0.00,WUHU216HW,2013-06-04 23:00:00,
2013-06-04 19:05:00,74.2,65.3,30.08,West,270,0.0,0.0,74,0.00,,,0.00,WUHU216HW,2013-06-04 23:05:00,
2013-06-04 19:30:00,73.6,65.3,30.08,NNW,338,0.0,0.0,75,0.00,,,0.00,WUHU216HW,2013-06-04 23:30:00,
2013-06-04 19:35:00,73.6,65.3,30.08,NNW,338,0.0,0.0,75,0.00,,,0.00,WUHU216HW,2013-06-04 23:35:00,
2013-06-04 20:00:00,73.1,65.1,30.09,NNW,338,0.0,0.0,76,0.00,,,0.00,WUHU216HW,2013-06-05 00:00:00,
2013-06-04 20:05:00,73.1,65.1,30.09,NNW,338,0.0,0.0,76,0.00,,,0.00,WUHU216HW,2013-06-05 00:05:00,
2013-06-04 20:30:00,72.4,65.2,30.09,NNW,338,0.0,0.0,78,0.00,,,0.00,WUHU216HW,2013-06-05 00:30:00,
2013-06-04 20:35:00,72.4,65.2,30.09,NNW,338,0.0,0.0,78,0.00,,,0.00,WUHU216HW,2013-06-05 00:35:00,
2013-06-04 21:00:00,71.6,65.2,30.10,NNW,338,0.0,0.0,80,0.00,,,0.00,WUHU216HW,2013-06-05 01:00:00,
2013-06-04 21:05:00,71.6,65.2,30.10,NNW,338,0.0,0.0,80,0.00,,,0.00,WUHU216HW,2013-06-05 01:05:00,
2013-06-04 21:30:00,71.1,65.0,30.11,NNW,338,0.0,0.0,81,0.00,,,0.00,WUHU216HW,2013-06-05 01:30:00,
2013-06-04 21:35:00,71.1,65.0,30.11,NNW,338,0.0,0.0,81,0.00,,,0.00,WUHU216HW,2013-06-05 01:35:00,
2013-06-04 22:00:00,70.7,65.3,30.11,NNW,338,0.0,0.0,83,0.00,,,0.00,WUHU216HW,2013-06-05 02:00:00,
2013-06-04 22:05:00,70.7,65.3,30.11,NNW,338,0.0,0.0,83,0.00,,,0.00,WUHU216HW,2013-06-05 02:05:00,
2013-06-04 22:30:00,69.8,64.7,30.12,NNW,338,0.0,0.0,84,0.00,,,0.00,WUHU216HW,2013-06-05 02:30:00,
2013-06-04 22:35:00,69.8,64.7,30.12,NNW,338,0.0,0.0,84,0.00,,,0.00,WUHU216HW,2013-06-05 02:35:00,
2013-06-04 23:00:00,69.7,64.5,30.13,NNW,338,0.0,0.0,84,0.00,,,0.00,WUHU216HW,2013-06-05 03:00:00,
2013-06-04 23:05:00,69.7,64.5,30.13,NNW,338,0.0,0.0,84,0.00,,,0.00,WUHU216HW,2013-06-05 03:05:00,
2013-06-04 23:30:00,68.8,63.7,30.13,NNW,338,0.2,0.2,84,0.00,,,0.00,WUHU216HW,2013-06-05 03:30:00,
2013-06-04 23:35:00,68.8,63.7,30.13,NNW,338,0.2,0.2,84,0.00,,,0.00,WUHU216HW,2013-06-05 03:35:00,